sensor_id;sensor_type;location;lat;lon;timestamp;temperature;humidity
2226;DHT22;1119;48.288;8.726;2023-04-29T00:00:47;13.80;99.90
2226;DHT22;1119;48.288;8.726;2023-04-29T00:03:34;13.80;99.90
2226;DHT22;1119;48.288;8.726;2023-04-29T00:06:22;13.80;99.90
2226;DHT22;1119;48.288;8.726;2023-04-29T00:09:10;13.90;99.90
2226;DHT22;1119;48.288;8.726;2023-04-29T00:11:58;13.90;99.90
2226;DHT22;1119;48.288;8.726;2023-04-29T00:14:47;13.90;99.90
2226;DHT22;1119;48.288;8.726;2023-04-29T00:17:35;13.80;99.90
2226;DHT22;1119;48.288;8.726;2023-04-29T00:20:23;13.80;99.90
2226;DHT22;1119;48.288;8.726;2023-04-29T00:23:10;13.70;99.90
2226;DHT22;1119;48.288;8.726;2023-04-29T00:25:58;13.70;99.90
2226;DHT22;1119;48.288;8.726;2023-04-29T00:28:47;13.80;99.90
2226;DHT22;1119;48.288;8.726;2023-04-29T00:31:35;13.80;99.90
2226;DHT22;1119;48.288;8.726;2023-04-29T00:34:23;13.80;99.90
2226;DHT22;1119;48.288;8.726;2023-04-29T00:37:10;13.80;99.90
2226;DHT22;1119;48.288;8.726;2023-04-29T00:39:58;13.80;99.90
2226;DHT22;1119;48.288;8.726;2023-04-29T00:42:46;13.80;99.90
2226;DHT22;1119;48.288;8.726;2023-04-29T00:45:35;13.70;99.90
2226;DHT22;1119;48.288;8.726;2023-04-29T00:48:22;13.70;99.90
2226;DHT22;1119;48.288;8.726;2023-04-29T00:51:10;13.60;99.90
2226;DHT22;1119;48.288;8.726;2023-04-29T00:53:58;13.60;99.90
2226;DHT22;1119;48.288;8.726;2023-04-29T00:56:45;13.50;99.90
2226;DHT22;1119;48.288;8.726;2023-04-29T00:59:34;13.50;99.90
2226;DHT22;1119;48.288;8.726;2023-04-29T01:02:23;13.40;99.90
2226;DHT22;1119;48.288;8.726;2023-04-29T01:05:11;13.40;99.90
2226;DHT22;1119;48.288;8.726;2023-04-29T01:08:12;13.40;99.90
2226;DHT22;1119;48.288;8.726;2023-04-29T01:11:07;13.30;99.90
2226;DHT22;1119;48.288;8.726;2023-04-29T01:13:59;13.30;99.90
2226;DHT22;1119;48.288;8.726;2023-04-29T01:16:51;13.20;99.90
2226;DHT22;1119;48.288;8.726;2023-04-29T01:19:45;13.10;99.90
2226;DHT22;1119;48.288;8.726;2023-04-29T01:22:36;13.10;99.90
2226;DHT22;1119;48.288;8.726;2023-04-29T01:25:26;13.00;99.90
2226;DHT22;1119;48.288;8.726;2023-04-29T01:28:42;12.90;99.90
2226;DHT22;1119;48.288;8.726;2023-04-29T01:31:38;12.90;99.90
2226;DHT22;1119;48.288;8.726;2023-04-29T01:34:34;12.90;99.90
2226;DHT22;1119;48.288;8.726;2023-04-29T01:37:37;12.90;99.90
2226;DHT22;1119;48.288;8.726;2023-04-29T01:40:35;12.90;99.90
2226;DHT22;1119;48.288;8.726;2023-04-29T01:43:29;12.80;99.90
2226;DHT22;1119;48.288;8.726;2023-04-29T01:46:27;12.80;99.90
2226;DHT22;1119;48.288;8.726;2023-04-29T01:49:19;12.80;99.90
2226;DHT22;1119;48.288;8.726;2023-04-29T01:52:07;12.80;99.90
2226;DHT22;1119;48.288;8.726;2023-04-29T01:54:57;12.70;99.90
2226;DHT22;1119;48.288;8.726;2023-04-29T01:57:50;12.70;99.90
2226;DHT22;1119;48.288;8.726;2023-04-29T02:01:07;12.80;99.90
2226;DHT22;1119;48.288;8.726;2023-04-29T02:03:57;12.90;99.90
2226;DHT22;1119;48.288;8.726;2023-04-29T02:06:44;12.90;99.90
2226;DHT22;1119;48.288;8.726;2023-04-29T02:09:32;12.90;99.90
2226;DHT22;1119;48.288;8.726;2023-04-29T02:12:27;12.90;99.90
2226;DHT22;1119;48.288;8.726;2023-04-29T02:15:16;12.90;99.90
2226;DHT22;1119;48.288;8.726;2023-04-29T02:18:06;12.90;99.90
2226;DHT22;1119;48.288;8.726;2023-04-29T02:20:59;12.90;99.90
2226;DHT22;1119;48.288;8.726;2023-04-29T02:23:47;12.90;99.90
2226;DHT22;1119;48.288;8.726;2023-04-29T02:26:35;12.90;99.90
2226;DHT22;1119;48.288;8.726;2023-04-29T02:29:23;12.80;99.90
2226;DHT22;1119;48.288;8.726;2023-04-29T02:32:13;12.80;99.90
2226;DHT22;1119;48.288;8.726;2023-04-29T02:35:01;12.80;99.90
2226;DHT22;1119;48.288;8.726;2023-04-29T02:37:48;12.70;99.90
2226;DHT22;1119;48.288;8.726;2023-04-29T02:40:40;12.70;99.90
2226;DHT22;1119;48.288;8.726;2023-04-29T02:43:28;12.70;99.90
2226;DHT22;1119;48.288;8.726;2023-04-29T02:46:17;12.70;99.90
2226;DHT22;1119;48.288;8.726;2023-04-29T02:49:25;12.60;99.90
2226;DHT22;1119;48.288;8.726;2023-04-29T02:52:31;12.60;99.90
2226;DHT22;1119;48.288;8.726;2023-04-29T02:55:19;12.60;99.90
2226;DHT22;1119;48.288;8.726;2023-04-29T02:58:07;12.60;99.90
2226;DHT22;1119;48.288;8.726;2023-04-29T03:00:54;12.60;99.90
2226;DHT22;1119;48.288;8.726;2023-04-29T03:03:42;12.60;99.90
2226;DHT22;1119;48.288;8.726;2023-04-29T03:06:31;12.70;99.90
2226;DHT22;1119;48.288;8.726;2023-04-29T03:09:19;12.60;99.90
2226;DHT22;1119;48.288;8.726;2023-04-29T03:12:07;12.60;99.90
2226;DHT22;1119;48.288;8.726;2023-04-29T03:14:55;12.60;99.90
2226;DHT22;1119;48.288;8.726;2023-04-29T03:17:43;12.60;99.90
2226;DHT22;1119;48.288;8.726;2023-04-29T03:20:32;12.70;99.90
2226;DHT22;1119;48.288;8.726;2023-04-29T03:23:23;12.70;99.90
2226;DHT22;1119;48.288;8.726;2023-04-29T03:26:11;12.60;99.90
2226;DHT22;1119;48.288;8.726;2023-04-29T03:28:59;12.60;99.90
2226;DHT22;1119;48.288;8.726;2023-04-29T03:31:47;12.60;99.90
2226;DHT22;1119;48.288;8.726;2023-04-29T03:34:35;12.60;99.90
2226;DHT22;1119;48.288;8.726;2023-04-29T03:37:45;12.50;99.90
2226;DHT22;1119;48.288;8.726;2023-04-29T03:40:42;12.50;99.90
2226;DHT22;1119;48.288;8.726;2023-04-29T03:43:30;12.50;99.90
2226;DHT22;1119;48.288;8.726;2023-04-29T03:46:18;12.40;99.90
2226;DHT22;1119;48.288;8.726;2023-04-29T03:49:06;12.40;99.90
2226;DHT22;1119;48.288;8.726;2023-04-29T03:51:54;12.40;99.90
2226;DHT22;1119;48.288;8.726;2023-04-29T03:54:43;12.40;99.90
2226;DHT22;1119;48.288;8.726;2023-04-29T03:57:32;12.40;99.90
2226;DHT22;1119;48.288;8.726;2023-04-29T04:00:21;12.40;99.90
2226;DHT22;1119;48.288;8.726;2023-04-29T04:03:14;12.30;99.90
2226;DHT22;1119;48.288;8.726;2023-04-29T04:06:03;12.30;99.90
2226;DHT22;1119;48.288;8.726;2023-04-29T04:08:51;12.30;99.90
2226;DHT22;1119;48.288;8.726;2023-04-29T04:11:44;12.40;99.90
2226;DHT22;1119;48.288;8.726;2023-04-29T04:14:34;12.40;99.90
2226;DHT22;1119;48.288;8.726;2023-04-29T04:17:22;12.40;99.90
2226;DHT22;1119;48.288;8.726;2023-04-29T04:20:11;12.30;99.90
2226;DHT22;1119;48.288;8.726;2023-04-29T04:22:59;12.30;99.90
2226;DHT22;1119;48.288;8.726;2023-04-29T04:25:49;12.30;99.90
2226;DHT22;1119;48.288;8.726;2023-04-29T04:29:12;12.30;99.90
2226;DHT22;1119;48.288;8.726;2023-04-29T04:32:17;12.30;99.90
2226;DHT22;1119;48.288;8.726;2023-04-29T04:35:06;12.30;99.90
2226;DHT22;1119;48.288;8.726;2023-04-29T04:37:54;12.30;99.90
2226;DHT22;1119;48.288;8.726;2023-04-29T04:40:43;12.40;99.90
2226;DHT22;1119;48.288;8.726;2023-04-29T04:43:49;12.40;99.90
2226;DHT22;1119;48.288;8.726;2023-04-29T04:47:10;12.40;99.90
2226;DHT22;1119;48.288;8.726;2023-04-29T04:50:28;12.40;99.90
2226;DHT22;1119;48.288;8.726;2023-04-29T04:53:17;12.40;99.90
2226;DHT22;1119;48.288;8.726;2023-04-29T04:56:15;12.50;99.90
2226;DHT22;1119;48.288;8.726;2023-04-29T04:59:03;12.50;99.90
2226;DHT22;1119;48.288;8.726;2023-04-29T05:01:53;12.60;99.90
2226;DHT22;1119;48.288;8.726;2023-04-29T05:04:41;12.70;99.90
2226;DHT22;1119;48.288;8.726;2023-04-29T05:07:33;12.70;99.90
2226;DHT22;1119;48.288;8.726;2023-04-29T05:10:24;12.80;99.90
2226;DHT22;1119;48.288;8.726;2023-04-29T05:13:14;12.90;99.90
2226;DHT22;1119;48.288;8.726;2023-04-29T05:16:02;12.90;99.90
2226;DHT22;1119;48.288;8.726;2023-04-29T05:18:51;13.00;99.90
2226;DHT22;1119;48.288;8.726;2023-04-29T05:21:39;13.20;99.90
2226;DHT22;1119;48.288;8.726;2023-04-29T05:24:30;13.30;99.90
2226;DHT22;1119;48.288;8.726;2023-04-29T05:27:19;13.40;99.90
2226;DHT22;1119;48.288;8.726;2023-04-29T05:30:08;13.40;99.90
2226;DHT22;1119;48.288;8.726;2023-04-29T05:32:56;13.40;99.90
2226;DHT22;1119;48.288;8.726;2023-04-29T05:35:44;13.40;99.90
2226;DHT22;1119;48.288;8.726;2023-04-29T05:38:32;13.50;99.90
2226;DHT22;1119;48.288;8.726;2023-04-29T05:41:25;13.50;99.90
2226;DHT22;1119;48.288;8.726;2023-04-29T05:44:13;13.50;99.90
2226;DHT22;1119;48.288;8.726;2023-04-29T05:47:00;13.70;99.90
2226;DHT22;1119;48.288;8.726;2023-04-29T05:49:49;13.90;99.90
2226;DHT22;1119;48.288;8.726;2023-04-29T05:52:37;13.90;99.90
2226;DHT22;1119;48.288;8.726;2023-04-29T05:55:25;14.00;99.90
2226;DHT22;1119;48.288;8.726;2023-04-29T05:58:16;14.10;99.90
2226;DHT22;1119;48.288;8.726;2023-04-29T06:01:04;14.20;99.90
2226;DHT22;1119;48.288;8.726;2023-04-29T06:03:52;14.20;99.90
2226;DHT22;1119;48.288;8.726;2023-04-29T06:06:47;14.30;99.90
2226;DHT22;1119;48.288;8.726;2023-04-29T06:09:58;14.40;99.90
2226;DHT22;1119;48.288;8.726;2023-04-29T06:12:46;14.90;99.90
2226;DHT22;1119;48.288;8.726;2023-04-29T06:15:38;15.20;99.90
2226;DHT22;1119;48.288;8.726;2023-04-29T06:18:25;15.20;99.90
2226;DHT22;1119;48.288;8.726;2023-04-29T06:21:13;15.20;99.90
2226;DHT22;1119;48.288;8.726;2023-04-29T06:24:02;15.10;99.90
2226;DHT22;1119;48.288;8.726;2023-04-29T06:26:50;14.90;99.90
2226;DHT22;1119;48.288;8.726;2023-04-29T06:29:38;14.70;99.90
2226;DHT22;1119;48.288;8.726;2023-04-29T06:32:27;14.70;99.90
2226;DHT22;1119;48.288;8.726;2023-04-29T06:35:15;14.70;99.90
2226;DHT22;1119;48.288;8.726;2023-04-29T06:38:25;14.80;99.90
2226;DHT22;1119;48.288;8.726;2023-04-29T06:41:28;14.90;99.90
2226;DHT22;1119;48.288;8.726;2023-04-29T06:44:35;14.90;99.90
2226;DHT22;1119;48.288;8.726;2023-04-29T06:47:50;14.90;99.90
2226;DHT22;1119;48.288;8.726;2023-04-29T06:50:49;15.00;99.90
2226;DHT22;1119;48.288;8.726;2023-04-29T06:53:37;14.90;99.90
2226;DHT22;1119;48.288;8.726;2023-04-29T06:56:24;14.90;99.90
2226;DHT22;1119;48.288;8.726;2023-04-29T06:59:12;14.80;99.90
2226;DHT22;1119;48.288;8.726;2023-04-29T07:02:00;14.70;99.90
2226;DHT22;1119;48.288;8.726;2023-04-29T07:04:49;14.70;99.90
2226;DHT22;1119;48.288;8.726;2023-04-29T07:07:37;14.50;99.90
2226;DHT22;1119;48.288;8.726;2023-04-29T07:10:25;14.60;99.90
2226;DHT22;1119;48.288;8.726;2023-04-29T07:13:14;14.70;99.90
2226;DHT22;1119;48.288;8.726;2023-04-29T07:16:01;14.80;99.90
2226;DHT22;1119;48.288;8.726;2023-04-29T07:18:49;14.90;99.90
2226;DHT22;1119;48.288;8.726;2023-04-29T07:21:38;14.90;99.90
2226;DHT22;1119;48.288;8.726;2023-04-29T07:24:25;14.90;99.90
2226;DHT22;1119;48.288;8.726;2023-04-29T07:27:13;15.20;99.90
2226;DHT22;1119;48.288;8.726;2023-04-29T07:30:01;15.80;99.90
2226;DHT22;1119;48.288;8.726;2023-04-29T07:32:52;16.30;99.90
2226;DHT22;1119;48.288;8.726;2023-04-29T07:35:40;16.30;99.90
2226;DHT22;1119;48.288;8.726;2023-04-29T07:38:31;16.40;99.90
2226;DHT22;1119;48.288;8.726;2023-04-29T07:41:19;16.50;99.90
2226;DHT22;1119;48.288;8.726;2023-04-29T07:44:08;16.60;99.90
2226;DHT22;1119;48.288;8.726;2023-04-29T07:46:55;16.60;99.90
2226;DHT22;1119;48.288;8.726;2023-04-29T07:49:43;16.50;99.90
2226;DHT22;1119;48.288;8.726;2023-04-29T07:52:31;16.30;99.90
2226;DHT22;1119;48.288;8.726;2023-04-29T07:55:20;16.30;99.90
2226;DHT22;1119;48.288;8.726;2023-04-29T07:58:07;16.30;99.90
2226;DHT22;1119;48.288;8.726;2023-04-29T08:00:55;16.30;99.90
2226;DHT22;1119;48.288;8.726;2023-04-29T08:03:43;16.10;99.90
2226;DHT22;1119;48.288;8.726;2023-04-29T08:06:32;16.00;99.90
2226;DHT22;1119;48.288;8.726;2023-04-29T08:09:22;15.80;99.90
2226;DHT22;1119;48.288;8.726;2023-04-29T08:12:11;15.60;99.90
2226;DHT22;1119;48.288;8.726;2023-04-29T08:15:00;15.70;99.90
2226;DHT22;1119;48.288;8.726;2023-04-29T08:17:47;15.80;99.90
2226;DHT22;1119;48.288;8.726;2023-04-29T08:20:35;16.20;99.90
2226;DHT22;1119;48.288;8.726;2023-04-29T08:23:23;16.60;99.90
2226;DHT22;1119;48.288;8.726;2023-04-29T08:26:11;16.70;99.90
2226;DHT22;1119;48.288;8.726;2023-04-29T08:29:00;16.70;99.90
2226;DHT22;1119;48.288;8.726;2023-04-29T08:31:47;16.90;99.90
2226;DHT22;1119;48.288;8.726;2023-04-29T08:34:36;17.10;99.90
2226;DHT22;1119;48.288;8.726;2023-04-29T08:37:23;17.20;99.00
2226;DHT22;1119;48.288;8.726;2023-04-29T08:40:12;17.30;98.30
2226;DHT22;1119;48.288;8.726;2023-04-29T08:43:00;17.40;98.10
2226;DHT22;1119;48.288;8.726;2023-04-29T08:45:51;17.40;98.00
2226;DHT22;1119;48.288;8.726;2023-04-29T08:51:55;18.30;96.20
2226;DHT22;1119;48.288;8.726;2023-04-29T08:54:42;18.60;94.80
2226;DHT22;1119;48.288;8.726;2023-04-29T08:57:35;18.90;95.80
2226;DHT22;1119;48.288;8.726;2023-04-29T09:00:25;19.60;95.90
2226;DHT22;1119;48.288;8.726;2023-04-29T09:03:21;19.80;93.70
2226;DHT22;1119;48.288;8.726;2023-04-29T09:06:11;20.10;93.20
2226;DHT22;1119;48.288;8.726;2023-04-29T09:09:01;20.20;91.90
2226;DHT22;1119;48.288;8.726;2023-04-29T09:11:49;20.10;90.00
2226;DHT22;1119;48.288;8.726;2023-04-29T09:14:37;20.00;90.90
2226;DHT22;1119;48.288;8.726;2023-04-29T09:17:38;20.20;90.00
2226;DHT22;1119;48.288;8.726;2023-04-29T09:20:29;20.30;90.60
2226;DHT22;1119;48.288;8.726;2023-04-29T09:23:17;20.50;88.10
2226;DHT22;1119;48.288;8.726;2023-04-29T09:26:04;20.60;88.50
2226;DHT22;1119;48.288;8.726;2023-04-29T09:29:06;20.80;85.50
2226;DHT22;1119;48.288;8.726;2023-04-29T09:31:55;21.00;85.40
2226;DHT22;1119;48.288;8.726;2023-04-29T09:34:43;21.00;85.00
2226;DHT22;1119;48.288;8.726;2023-04-29T09:37:32;20.90;83.70
2226;DHT22;1119;48.288;8.726;2023-04-29T09:40:27;20.80;84.00
2226;DHT22;1119;48.288;8.726;2023-04-29T09:43:17;20.80;83.70
2226;DHT22;1119;48.288;8.726;2023-04-29T09:46:11;20.70;83.90
2226;DHT22;1119;48.288;8.726;2023-04-29T09:49:00;20.80;83.90
2226;DHT22;1119;48.288;8.726;2023-04-29T09:51:51;20.70;80.10
2226;DHT22;1119;48.288;8.726;2023-04-29T09:54:42;20.50;83.80
2226;DHT22;1119;48.288;8.726;2023-04-29T09:57:38;20.50;85.40
2226;DHT22;1119;48.288;8.726;2023-04-29T10:00:30;20.60;82.30
2226;DHT22;1119;48.288;8.726;2023-04-29T10:03:20;20.80;82.50
2226;DHT22;1119;48.288;8.726;2023-04-29T10:06:08;21.00;81.90
2226;DHT22;1119;48.288;8.726;2023-04-29T10:08:56;21.10;81.00
2226;DHT22;1119;48.288;8.726;2023-04-29T10:11:47;21.10;78.00
2226;DHT22;1119;48.288;8.726;2023-04-29T10:14:46;21.10;79.80
2226;DHT22;1119;48.288;8.726;2023-04-29T10:17:43;21.20;75.70
2226;DHT22;1119;48.288;8.726;2023-04-29T10:20:33;21.20;75.80
2226;DHT22;1119;48.288;8.726;2023-04-29T10:23:21;21.20;73.60
2226;DHT22;1119;48.288;8.726;2023-04-29T10:26:11;20.90;74.00
2226;DHT22;1119;48.288;8.726;2023-04-29T10:29:01;20.90;73.30
2226;DHT22;1119;48.288;8.726;2023-04-29T10:31:50;20.90;72.80
2226;DHT22;1119;48.288;8.726;2023-04-29T10:34:38;20.80;72.80
2226;DHT22;1119;48.288;8.726;2023-04-29T10:37:27;20.70;73.50
2226;DHT22;1119;48.288;8.726;2023-04-29T10:40:17;20.70;73.10
2226;DHT22;1119;48.288;8.726;2023-04-29T10:43:08;20.80;73.90
2226;DHT22;1119;48.288;8.726;2023-04-29T10:46:18;20.70;74.60
2226;DHT22;1119;48.288;8.726;2023-04-29T10:49:06;20.70;74.20
2226;DHT22;1119;48.288;8.726;2023-04-29T10:52:02;20.70;72.80
2226;DHT22;1119;48.288;8.726;2023-04-29T10:55:01;20.70;72.10
2226;DHT22;1119;48.288;8.726;2023-04-29T10:57:48;20.60;71.00
2226;DHT22;1119;48.288;8.726;2023-04-29T11:00:37;20.40;72.10
2226;DHT22;1119;48.288;8.726;2023-04-29T11:03:47;20.50;72.60
2226;DHT22;1119;48.288;8.726;2023-04-29T11:06:45;20.70;71.00
2226;DHT22;1119;48.288;8.726;2023-04-29T11:09:34;20.80;70.80
2226;DHT22;1119;48.288;8.726;2023-04-29T11:12:23;20.70;71.50
2226;DHT22;1119;48.288;8.726;2023-04-29T11:15:17;20.60;70.90
2226;DHT22;1119;48.288;8.726;2023-04-29T11:18:10;20.70;69.40
2226;DHT22;1119;48.288;8.726;2023-04-29T11:21:14;20.90;72.20
2226;DHT22;1119;48.288;8.726;2023-04-29T11:24:02;21.10;69.60
2226;DHT22;1119;48.288;8.726;2023-04-29T11:26:51;21.10;70.60
2226;DHT22;1119;48.288;8.726;2023-04-29T11:29:39;21.30;68.60
2226;DHT22;1119;48.288;8.726;2023-04-29T11:32:28;21.40;69.00
2226;DHT22;1119;48.288;8.726;2023-04-29T11:35:17;21.40;68.80
2226;DHT22;1119;48.288;8.726;2023-04-29T11:38:06;21.30;68.90
2226;DHT22;1119;48.288;8.726;2023-04-29T11:40:54;21.10;67.20
2226;DHT22;1119;48.288;8.726;2023-04-29T11:43:45;20.90;67.40
2226;DHT22;1119;48.288;8.726;2023-04-29T11:46:33;21.00;67.40
2226;DHT22;1119;48.288;8.726;2023-04-29T11:49:20;21.20;68.50
2226;DHT22;1119;48.288;8.726;2023-04-29T11:52:14;21.30;66.90
2226;DHT22;1119;48.288;8.726;2023-04-29T11:55:04;21.30;66.80
2226;DHT22;1119;48.288;8.726;2023-04-29T11:57:52;21.00;67.10
2226;DHT22;1119;48.288;8.726;2023-04-29T12:00:40;20.70;65.70
2226;DHT22;1119;48.288;8.726;2023-04-29T12:03:27;20.70;68.00
2226;DHT22;1119;48.288;8.726;2023-04-29T12:06:15;20.60;67.70
2226;DHT22;1119;48.288;8.726;2023-04-29T12:09:03;20.60;68.70
2226;DHT22;1119;48.288;8.726;2023-04-29T12:11:52;20.70;68.40
2226;DHT22;1119;48.288;8.726;2023-04-29T12:14:40;20.70;65.70
2226;DHT22;1119;48.288;8.726;2023-04-29T12:17:28;20.50;67.10
2226;DHT22;1119;48.288;8.726;2023-04-29T12:20:16;20.50;67.50
2226;DHT22;1119;48.288;8.726;2023-04-29T12:23:11;20.50;69.30
2226;DHT22;1119;48.288;8.726;2023-04-29T12:25:59;20.60;69.20
2226;DHT22;1119;48.288;8.726;2023-04-29T12:28:53;20.80;65.90
2226;DHT22;1119;48.288;8.726;2023-04-29T12:31:41;20.90;65.30
2226;DHT22;1119;48.288;8.726;2023-04-29T12:34:29;20.90;65.10
2226;DHT22;1119;48.288;8.726;2023-04-29T12:37:18;20.90;65.10
2226;DHT22;1119;48.288;8.726;2023-04-29T12:40:12;20.70;65.40
2226;DHT22;1119;48.288;8.726;2023-04-29T12:43:06;20.50;66.50
2226;DHT22;1119;48.288;8.726;2023-04-29T12:45:59;20.50;66.50
2226;DHT22;1119;48.288;8.726;2023-04-29T12:48:48;20.50;66.60
2226;DHT22;1119;48.288;8.726;2023-04-29T12:51:35;20.50;65.00
2226;DHT22;1119;48.288;8.726;2023-04-29T12:54:23;20.50;64.60
2226;DHT22;1119;48.288;8.726;2023-04-29T12:57:11;20.40;63.90
2226;DHT22;1119;48.288;8.726;2023-04-29T12:59:59;20.40;65.40
2226;DHT22;1119;48.288;8.726;2023-04-29T13:02:48;20.30;67.10
2226;DHT22;1119;48.288;8.726;2023-04-29T13:05:36;20.20;67.30
2226;DHT22;1119;48.288;8.726;2023-04-29T13:08:23;20.20;67.40
2226;DHT22;1119;48.288;8.726;2023-04-29T13:11:11;20.40;67.20
2226;DHT22;1119;48.288;8.726;2023-04-29T13:13:59;20.50;67.90
2226;DHT22;1119;48.288;8.726;2023-04-29T13:16:46;20.70;66.60
2226;DHT22;1119;48.288;8.726;2023-04-29T13:19:35;20.80;65.10
2226;DHT22;1119;48.288;8.726;2023-04-29T13:22:23;20.70;65.90
2226;DHT22;1119;48.288;8.726;2023-04-29T13:25:10;20.50;66.00
2226;DHT22;1119;48.288;8.726;2023-04-29T13:27:58;20.40;66.30
2226;DHT22;1119;48.288;8.726;2023-04-29T13:30:46;20.40;65.90
2226;DHT22;1119;48.288;8.726;2023-04-29T13:33:34;20.60;65.40
2226;DHT22;1119;48.288;8.726;2023-04-29T13:36:22;20.80;65.80
2226;DHT22;1119;48.288;8.726;2023-04-29T13:39:13;21.00;65.10
2226;DHT22;1119;48.288;8.726;2023-04-29T13:42:02;21.10;63.80
2226;DHT22;1119;48.288;8.726;2023-04-29T13:44:51;21.10;64.10
2226;DHT22;1119;48.288;8.726;2023-04-29T13:47:42;21.00;63.10
2226;DHT22;1119;48.288;8.726;2023-04-29T13:50:30;20.70;62.50
2226;DHT22;1119;48.288;8.726;2023-04-29T13:53:31;20.70;63.50
2226;DHT22;1119;48.288;8.726;2023-04-29T13:56:20;20.60;64.80
2226;DHT22;1119;48.288;8.726;2023-04-29T13:59:11;20.70;64.20
2226;DHT22;1119;48.288;8.726;2023-04-29T14:02:01;20.80;65.00
2226;DHT22;1119;48.288;8.726;2023-04-29T14:04:51;20.80;64.60
2226;DHT22;1119;48.288;8.726;2023-04-29T14:07:40;20.40;64.40
2226;DHT22;1119;48.288;8.726;2023-04-29T14:10:31;20.10;65.40
2226;DHT22;1119;48.288;8.726;2023-04-29T14:13:20;20.00;65.30
2226;DHT22;1119;48.288;8.726;2023-04-29T14:16:09;20.00;66.00
2226;DHT22;1119;48.288;8.726;2023-04-29T14:18:57;19.60;64.20
2226;DHT22;1119;48.288;8.726;2023-04-29T14:21:45;19.60;65.60
2226;DHT22;1119;48.288;8.726;2023-04-29T14:24:33;19.80;65.10
2226;DHT22;1119;48.288;8.726;2023-04-29T14:27:23;20.00;65.30
2226;DHT22;1119;48.288;8.726;2023-04-29T14:30:11;20.10;65.00
2226;DHT22;1119;48.288;8.726;2023-04-29T14:32:59;20.00;63.60
2226;DHT22;1119;48.288;8.726;2023-04-29T14:35:47;20.00;63.60
2226;DHT22;1119;48.288;8.726;2023-04-29T14:38:36;20.10;63.60
2226;DHT22;1119;48.288;8.726;2023-04-29T14:41:23;20.10;62.80
2226;DHT22;1119;48.288;8.726;2023-04-29T14:44:13;19.90;63.90
2226;DHT22;1119;48.288;8.726;2023-04-29T14:47:02;19.70;65.30
2226;DHT22;1119;48.288;8.726;2023-04-29T14:49:51;19.40;65.10
2226;DHT22;1119;48.288;8.726;2023-04-29T14:52:39;19.30;66.90
2226;DHT22;1119;48.288;8.726;2023-04-29T14:55:27;19.00;66.90
2226;DHT22;1119;48.288;8.726;2023-04-29T14:58:15;18.70;67.80
2226;DHT22;1119;48.288;8.726;2023-04-29T15:01:20;18.60;68.80
2226;DHT22;1119;48.288;8.726;2023-04-29T15:04:12;18.40;69.00
2226;DHT22;1119;48.288;8.726;2023-04-29T15:07:00;18.20;69.00
2226;DHT22;1119;48.288;8.726;2023-04-29T15:09:48;17.70;70.00
2226;DHT22;1119;48.288;8.726;2023-04-29T15:12:36;17.50;71.20
2226;DHT22;1119;48.288;8.726;2023-04-29T15:15:25;17.30;72.40
2226;DHT22;1119;48.288;8.726;2023-04-29T15:18:15;17.30;73.30
2226;DHT22;1119;48.288;8.726;2023-04-29T15:21:03;17.20;72.60
2226;DHT22;1119;48.288;8.726;2023-04-29T15:23:52;17.20;72.30
2226;DHT22;1119;48.288;8.726;2023-04-29T15:26:40;17.30;73.20
2226;DHT22;1119;48.288;8.726;2023-04-29T15:29:29;17.40;72.00
2226;DHT22;1119;48.288;8.726;2023-04-29T15:32:18;17.60;71.90
2226;DHT22;1119;48.288;8.726;2023-04-29T15:35:08;17.80;71.80
2226;DHT22;1119;48.288;8.726;2023-04-29T15:37:57;17.60;70.70
2226;DHT22;1119;48.288;8.726;2023-04-29T15:40:45;17.70;72.20
2226;DHT22;1119;48.288;8.726;2023-04-29T15:43:33;17.60;70.50
2226;DHT22;1119;48.288;8.726;2023-04-29T15:46:22;17.70;70.80
2226;DHT22;1119;48.288;8.726;2023-04-29T15:49:10;17.90;70.30
2226;DHT22;1119;48.288;8.726;2023-04-29T15:51:59;18.70;70.10
2226;DHT22;1119;48.288;8.726;2023-04-29T15:54:50;18.10;68.70
2226;DHT22;1119;48.288;8.726;2023-04-29T15:57:41;18.20;69.10
2226;DHT22;1119;48.288;8.726;2023-04-29T16:00:29;18.30;68.10
2226;DHT22;1119;48.288;8.726;2023-04-29T16:03:17;18.30;68.10
2226;DHT22;1119;48.288;8.726;2023-04-29T16:06:06;18.30;66.90
2226;DHT22;1119;48.288;8.726;2023-04-29T16:08:55;18.30;67.70
2226;DHT22;1119;48.288;8.726;2023-04-29T16:11:43;18.00;67.10
2226;DHT22;1119;48.288;8.726;2023-04-29T16:14:31;18.00;68.90
2226;DHT22;1119;48.288;8.726;2023-04-29T16:17:19;17.60;67.80
2226;DHT22;1119;48.288;8.726;2023-04-29T16:20:08;17.50;66.20
2226;DHT22;1119;48.288;8.726;2023-04-29T16:22:56;17.50;68.10
2226;DHT22;1119;48.288;8.726;2023-04-29T16:25:45;17.30;69.30
2226;DHT22;1119;48.288;8.726;2023-04-29T16:28:33;17.00;72.10
2226;DHT22;1119;48.288;8.726;2023-04-29T16:31:22;17.10;72.30
2226;DHT22;1119;48.288;8.726;2023-04-29T16:34:10;16.30;73.60
2226;DHT22;1119;48.288;8.726;2023-04-29T16:36:58;15.90;73.90
2226;DHT22;1119;48.288;8.726;2023-04-29T16:39:45;15.80;75.80
2226;DHT22;1119;48.288;8.726;2023-04-29T16:42:35;16.30;81.50
2226;DHT22;1119;48.288;8.726;2023-04-29T16:45:23;15.30;84.90
2226;DHT22;1119;48.288;8.726;2023-04-29T16:48:11;14.80;88.80
2226;DHT22;1119;48.288;8.726;2023-04-29T16:50:59;14.70;90.40
2226;DHT22;1119;48.288;8.726;2023-04-29T16:53:47;14.40;91.70
2226;DHT22;1119;48.288;8.726;2023-04-29T16:56:35;14.10;92.40
2226;DHT22;1119;48.288;8.726;2023-04-29T16:59:24;13.90;93.20
2226;DHT22;1119;48.288;8.726;2023-04-29T17:02:12;13.70;93.90
2226;DHT22;1119;48.288;8.726;2023-04-29T17:05:00;13.60;94.80
2226;DHT22;1119;48.288;8.726;2023-04-29T17:07:48;13.50;95.80
2226;DHT22;1119;48.288;8.726;2023-04-29T17:10:36;13.40;96.70
2226;DHT22;1119;48.288;8.726;2023-04-29T17:13:24;13.40;97.30
2226;DHT22;1119;48.288;8.726;2023-04-29T17:16:13;13.30;97.20
2226;DHT22;1119;48.288;8.726;2023-04-29T17:19:01;14.30;98.50
2226;DHT22;1119;48.288;8.726;2023-04-29T17:21:49;13.30;98.60
2226;DHT22;1119;48.288;8.726;2023-04-29T17:24:36;12.90;99.10
2226;DHT22;1119;48.288;8.726;2023-04-29T17:27:24;13.10;99.80
2226;DHT22;1119;48.288;8.726;2023-04-29T17:30:12;12.90;99.90
2226;DHT22;1119;48.288;8.726;2023-04-29T17:33:01;12.90;99.90
2226;DHT22;1119;48.288;8.726;2023-04-29T17:35:50;12.80;99.90
2226;DHT22;1119;48.288;8.726;2023-04-29T17:38:38;12.50;99.90
2226;DHT22;1119;48.288;8.726;2023-04-29T17:41:25;12.50;99.90
2226;DHT22;1119;48.288;8.726;2023-04-29T17:44:13;12.40;99.90
2226;DHT22;1119;48.288;8.726;2023-04-29T17:47:01;12.40;99.90
2226;DHT22;1119;48.288;8.726;2023-04-29T17:49:50;12.50;99.90
2226;DHT22;1119;48.288;8.726;2023-04-29T17:52:38;12.40;99.90
2226;DHT22;1119;48.288;8.726;2023-04-29T17:55:25;12.40;99.90
2226;DHT22;1119;48.288;8.726;2023-04-29T17:58:13;12.30;99.90
2226;DHT22;1119;48.288;8.726;2023-04-29T18:01:02;12.40;99.90
2226;DHT22;1119;48.288;8.726;2023-04-29T18:03:50;12.20;99.90
2226;DHT22;1119;48.288;8.726;2023-04-29T18:06:39;12.10;99.90
2226;DHT22;1119;48.288;8.726;2023-04-29T18:09:27;12.00;99.90
2226;DHT22;1119;48.288;8.726;2023-04-29T18:12:14;11.90;99.90
2226;DHT22;1119;48.288;8.726;2023-04-29T18:15:02;11.70;99.90
2226;DHT22;1119;48.288;8.726;2023-04-29T18:17:51;11.70;99.90
2226;DHT22;1119;48.288;8.726;2023-04-29T18:20:41;11.50;99.90
2226;DHT22;1119;48.288;8.726;2023-04-29T18:23:30;11.50;99.90
2226;DHT22;1119;48.288;8.726;2023-04-29T18:26:18;11.50;99.90
2226;DHT22;1119;48.288;8.726;2023-04-29T18:29:06;11.40;99.90
2226;DHT22;1119;48.288;8.726;2023-04-29T18:31:54;11.40;99.90
2226;DHT22;1119;48.288;8.726;2023-04-29T18:34:42;11.30;99.90